Time;durP1;ratioP1;P1;durP2;ratioP2;P2;SDS_P1;SDS_P2;PMS_P1;PMS_P2;Temp;Humidity;BMP_temperature;BMP_pressure;BME280_temperature;BME280_humidity;BME280_pressure;Samples;Min_cycle;Max_cycle;Signal;HPM_P1;HPM_P2
2022/07/13 00:01:20;;;;;;;8.05;2.63;;;;;;;;;;7733546;23;20035;-53
2022/07/13 00:04:20;;;;;;;7.15;2.63;;;;;;;;;;7749594;23;20020;-49
2022/07/13 00:07:21;;;;;;;4.35;2.53;;;;;;;;;;7738260;23;20788;-53
2022/07/13 00:10:21;;;;;;;4.60;2.17;;;;;;;;;;7740425;23;20043;-55
2022/07/13 00:13:22;;;;;;;7.57;2.67;;;;;;;;;;7748932;23;20100;-50
2022/07/13 00:16:22;;;;;;;8.57;2.40;;;;;;;;;;7751482;23;20351;-55
2022/07/13 00:19:24;;;;;;;8.05;2.70;;;;;;;;;;7748943;23;20445;-54
2022/07/13 00:22:25;;;;;;;6.03;2.60;;;;;;;;;;7747925;23;20027;-49
2022/07/13 00:25:26;;;;;;;4.87;2.23;;;;;;;;;;7746749;23;20566;-55
2022/07/13 00:28:26;;;;;;;7.15;2.60;;;;;;;;;;7748940;23;20020;-52
2022/07/13 00:31:27;;;;;;;6.60;2.67;;;;;;;;;;7748087;23;20023;-55
2022/07/13 00:34:30;;;;;;;5.97;2.50;;;;;;;;;;7747706;23;20363;-53
2022/07/13 00:37:31;;;;;;;5.22;2.40;;;;;;;;;;7746876;23;20103;-48
2022/07/13 00:40:32;;;;;;;6.32;2.75;;;;;;;;;;7748173;23;20121;-56
2022/07/13 00:43:32;;;;;;;5.90;2.67;;;;;;;;;;7747925;23;20508;-52
2022/07/13 00:46:34;;;;;;;7.68;2.88;;;;;;;;;;7747982;23;20039;-53
2022/07/13 00:49:35;;;;;;;6.13;2.80;;;;;;;;;;7748443;23;20016;-48
2022/07/13 00:52:38;;;;;;;8.20;2.83;;;;;;;;;;7748628;23;20095;-51
2022/07/13 00:55:39;;;;;;;6.93;2.88;;;;;;;;;;7747660;23;20026;-49
2022/07/13 00:58:40;;;;;;;6.57;3.28;;;;;;;;;;7748197;23;20024;-50
2022/07/13 01:01:41;;;;;;;5.10;2.60;;;;;;;;;;7748065;23;20078;-52
2022/07/13 01:04:41;;;;;;;6.20;2.50;;;;;;;;;;7745247;23;20047;-50
2022/07/13 01:07:44;;;;;;;9.30;2.72;;;;;;;;;;7745009;23;20099;-52
2022/07/13 01:10:45;;;;;;;7.25;2.65;;;;;;;;;;7746153;23;20103;-53
2022/07/13 01:13:45;;;;;;;6.85;3.20;;;;;;;;;;7747075;23;20012;-53
2022/07/13 01:16:46;;;;;;;5.07;2.65;;;;;;;;;;7744806;23;20495;-52
2022/07/13 01:19:48;;;;;;;5.38;2.63;;;;;;;;;;7746729;23;20494;-52
2022/07/13 01:22:51;;;;;;;6.15;3.03;;;;;;;;;;7746773;23;20099;-51
2022/07/13 01:25:56;;;;;;;6.45;2.63;;;;;;;;;;7746147;23;20016;-53
2022/07/13 01:28:56;;;;;;;6.05;2.78;;;;;;;;;;7746783;23;20027;-57
2022/07/13 01:32:01;;;;;;;6.18;2.80;;;;;;;;;;7746309;23;20440;-54
2022/07/13 01:35:02;;;;;;;6.32;2.88;;;;;;;;;;7746480;23;20044;-50
2022/07/13 01:38:03;;;;;;;8.20;2.80;;;;;;;;;;7746034;23;20095;-48
2022/07/13 01:41:04;;;;;;;5.80;3.10;;;;;;;;;;7745636;23;20035;-48
2022/07/13 01:44:05;;;;;;;8.10;2.83;;;;;;;;;;7746375;23;20062;-48
2022/07/13 01:47:09;;;;;;;6.85;3.08;;;;;;;;;;7745840;23;20020;-51
2022/07/13 01:50:11;;;;;;;5.22;2.90;;;;;;;;;;7745813;23;20024;-51
2022/07/13 01:53:12;;;;;;;7.22;3.15;;;;;;;;;;7746358;23;20019;-50
2022/07/13 01:56:13;;;;;;;6.80;3.05;;;;;;;;;;7745601;23;20027;-51
2022/07/13 01:59:13;;;;;;;9.80;3.70;;;;;;;;;;7746228;23;20340;-53
2022/07/13 02:02:14;;;;;;;7.95;3.10;;;;;;;;;;7746873;23;20087;-54
2022/07/13 02:05:15;;;;;;;5.30;3.00;;;;;;;;;;7745751;23;20027;-53
2022/07/13 02:08:15;;;;;;;5.35;3.60;;;;;;;;;;7746292;23;20399;-54
2022/07/13 02:11:17;;;;;;;6.80;3.00;;;;;;;;;;7745744;23;20547;-49
2022/07/13 02:14:18;;;;;;;;;;;;;;;;;;7746287;23;20020;-55
2022/07/13 02:17:19;;;;;;;7.38;3.53;;;;;;;;;;7744557;23;19954;-48
2022/07/13 02:20:19;;;;;;;7.78;3.30;;;;;;;;;;7745163;23;20083;-49
2022/07/13 02:23:21;;;;;;;6.97;3.08;;;;;;;;;;7744851;23;20390;-48
2022/07/13 02:26:21;;;;;;;6.40;3.47;;;;;;;;;;7744549;23;20095;-55
2022/07/13 02:29:22;;;;;;;9.10;3.92;;;;;;;;;;7757475;23;20099;-55
2022/07/13 02:32:22;;;;;;;8.27;3.10;;;;;;;;;;7741919;23;20110;-51
2022/07/13 02:35:23;;;;;;;6.88;3.10;;;;;;;;;;7740583;23;20051;-54
2022/07/13 02:38:24;;;;;;;6.63;3.22;;;;;;;;;;7740458;23;20020;-51
2022/07/13 02:41:25;;;;;;;7.63;3.40;;;;;;;;;;7738717;23;20043;-52
2022/07/13 02:44:25;;;;;;;6.60;3.35;;;;;;;;;;7741320;23;20099;-48
2022/07/13 02:47:26;;;;;;;5.95;3.05;;;;;;;;;;7737467;23;20016;-51
2022/07/13 02:50:26;;;;;;;6.65;2.95;;;;;;;;;;7750407;23;20099;-49
2022/07/13 02:53:27;;;;;;;6.53;3.22;;;;;;;;;;7741558;23;20501;-48
2022/07/13 02:56:27;;;;;;;7.85;3.17;;;;;;;;;;7738891;23;20396;-53
2022/07/13 02:59:33;;;;;;;5.60;3.10;;;;;;;;;;7740554;23;20024;-55
2022/07/13 03:02:33;;;;;;;8.32;2.90;;;;;;;;;;7738619;23;20135;-51
2022/07/13 03:05:34;;;;;;;7.38;2.97;;;;;;;;;;7739071;23;20422;-50
2022/07/13 03:08:34;;;;;;;5.30;3.33;;;;;;;;;;7742622;23;20012;-49
2022/07/13 03:11:35;;;;;;;6.43;3.03;;;;;;;;;;7739771;23;20016;-51
2022/07/13 03:14:35;;;;;;;6.97;3.15;;;;;;;;;;7736578;23;20551;-53
2022/07/13 03:17:37;;;;;;;7.03;3.15;;;;;;;;;;7739746;23;20039;-49
2022/07/13 03:20:39;;;;;;;7.03;3.35;;;;;;;;;;7741009;23;20038;-48
2022/07/13 03:23:39;;;;;;;;;;;;;;;;;;7741823;23;20020;-53
2022/07/13 03:26:40;;;;;;;8.77;3.15;;;;;;;;;;7739718;23;19957;-50
2022/07/13 03:29:41;;;;;;;6.03;3.10;;;;;;;;;;7752172;23;20016;-48
2022/07/13 03:32:41;;;;;;;6.80;3.15;;;;;;;;;;7741135;23;20921;-47
2022/07/13 03:35:42;;;;;;;7.78;3.17;;;;;;;;;;7739815;23;20020;-50
2022/07/13 03:38:42;;;;;;;8.25;3.60;;;;;;;;;;7740529;23;20526;-53
2022/07/13 03:41:43;;;;;;;7.05;3.13;;;;;;;;;;7740061;23;20019;-51
2022/07/13 03:44:44;;;;;;;7.13;3.28;;;;;;;;;;7740493;23;20043;-55
2022/07/13 03:47:44;;;;;;;6.35;3.20;;;;;;;;;;7740935;23;20493;-47
2022/07/13 03:50:46;;;;;;;8.13;3.10;;;;;;;;;;7742724;23;20562;-48
2022/07/13 03:53:47;;;;;;;6.03;3.20;;;;;;;;;;7744923;23;20100;-48
2022/07/13 03:56:48;;;;;;;6.90;3.00;;;;;;;;;;7740259;23;20016;-49
2022/07/13 03:59:48;;;;;;;7.50;3.13;;;;;;;;;;7739749;23;20065;-52
2022/07/13 04:02:49;;;;;;;6.85;3.10;;;;;;;;;;7713911;23;20012;-52
2022/07/13 04:05:49;;;;;;;9.65;3.40;;;;;;;;;;7740432;23;20387;-48
2022/07/13 04:08:50;;;;;;;7.35;3.25;;;;;;;;;;7741638;23;20146;-53
2022/07/13 04:11:51;;;;;;;5.80;3.10;;;;;;;;;;7740069;23;20067;-51
2022/07/13 04:14:52;;;;;;;6.18;3.00;;;;;;;;;;7740726;23;20405;-49
2022/07/13 04:17:52;;;;;;;7.55;3.40;;;;;;;;;;7740738;23;20448;-47
2022/07/13 04:20:53;;;;;;;8.52;3.50;;;;;;;;;;7747125;23;20012;-47
2022/07/13 04:23:53;;;;;;;7.10;3.10;;;;;;;;;;7740278;23;20099;-48
2022/07/13 04:26:54;;;;;;;6.22;3.15;;;;;;;;;;7740157;23;20343;-50
2022/07/13 04:29:55;;;;;;;6.80;3.60;;;;;;;;;;7736575;23;20019;-47
2022/07/13 04:32:55;;;;;;;11.27;3.08;;;;;;;;;;7740367;23;20099;-56
2022/07/13 04:35:56;;;;;;;5.35;3.00;;;;;;;;;;7738141;23;20031;-48
2022/07/13 04:38:56;;;;;;;7.38;3.03;;;;;;;;;;7741159;23;20103;-53
2022/07/13 04:41:59;;;;;;;6.03;2.97;;;;;;;;;;7741480;23;20754;-49
2022/07/13 04:44:59;;;;;;;4.90;2.75;;;;;;;;;;7742385;23;20020;-53
2022/07/13 04:48:00;;;;;;;9.32;3.40;;;;;;;;;;7750475;23;20024;-51
2022/07/13 04:51:02;;;;;;;6.75;3.10;;;;;;;;;;7742169;23;20476;-50
2022/07/13 04:54:02;;;;;;;5.38;3.17;;;;;;;;;;7741073;23;20016;-50
2022/07/13 04:57:03;;;;;;;6.28;3.40;;;;;;;;;;7739543;23;20095;-47
2022/07/13 05:00:06;;;;;;;8.55;3.40;;;;;;;;;;7738640;23;20081;-50
2022/07/13 05:03:06;;;;;;;7.30;4.00;;;;;;;;;;7737521;23;20020;-53
2022/07/13 05:06:07;;;;;;;7.97;3.67;;;;;;;;;;7741285;23;20016;-51
2022/07/13 05:09:07;;;;;;;8.65;3.30;;;;;;;;;;7745630;23;20024;-53
2022/07/13 05:12:08;;;;;;;7.15;3.47;;;;;;;;;;7746435;23;20012;-49
2022/07/13 05:15:10;;;;;;;6.20;3.45;;;;;;;;;;7743155;23;20017;-52
2022/07/13 05:18:11;;;;;;;13.15;3.65;;;;;;;;;;7741899;23;20055;-48
2022/07/13 05:21:12;;;;;;;7.95;3.20;;;;;;;;;;7747008;23;20016;-48
2022/07/13 05:24:13;;;;;;;6.97;3.58;;;;;;;;;;7745097;23;20506;-56
2022/07/13 05:27:13;;;;;;;7.03;3.50;;;;;;;;;;7746032;23;20411;-52
2022/07/13 05:30:14;;;;;;;6.03;2.90;;;;;;;;;;7745828;23;20035;-52
2022/07/13 05:33:16;;;;;;;7.95;3.20;;;;;;;;;;7747690;23;20134;-49
2022/07/13 05:36:17;;;;;;;5.50;2.97;;;;;;;;;;7746018;23;20551;-51
2022/07/13 05:39:17;;;;;;;6.85;3.22;;;;;;;;;;7744177;23;20020;-51
2022/07/13 05:42:18;;;;;;;7.30;3.30;;;;;;;;;;7742847;23;20016;-56
2022/07/13 05:45:19;;;;;;;6.80;3.10;;;;;;;;;;7741677;23;20130;-53
2022/07/13 05:48:20;;;;;;;7.57;3.33;;;;;;;;;;7743714;23;20054;-54
2022/07/13 05:51:21;;;;;;;8.57;3.25;;;;;;;;;;7744119;23;20411;-47
2022/07/13 05:54:21;;;;;;;5.43;3.08;;;;;;;;;;7745951;23;20020;-56
2022/07/13 05:57:22;;;;;;;7.90;3.00;;;;;;;;;;7746374;23;20488;-51
2022/07/13 06:00:22;;;;;;;6.43;2.92;;;;;;;;;;7745027;23;20074;-51
2022/07/13 06:03:23;;;;;;;6.28;3.08;;;;;;;;;;7744436;23;20091;-55
2022/07/13 06:06:24;;;;;;;8.35;3.10;;;;;;;;;;7743495;23;20016;-48
2022/07/13 06:09:25;;;;;;;5.75;3.30;;;;;;;;;;7743502;23;20068;-55
2022/07/13 06:12:25;;;;;;;5.90;3.28;;;;;;;;;;7745113;23;20091;-48
2022/07/13 06:15:26;;;;;;;5.55;2.90;;;;;;;;;;7744781;23;20065;-48
2022/07/13 06:18:27;;;;;;;6.20;3.15;;;;;;;;;;7745900;23;20542;-47
2022/07/13 06:21:27;;;;;;;6.35;3.30;;;;;;;;;;7744880;23;20166;-53
2022/07/13 06:24:28;;;;;;;5.57;2.80;;;;;;;;;;7743046;23;20534;-50
2022/07/13 06:27:29;;;;;;;6.97;2.97;;;;;;;;;;7744352;23;20123;-55
2022/07/13 06:30:31;;;;;;;5.88;2.90;;;;;;;;;;7741651;23;20039;-55
2022/07/13 06:33:31;;;;;;;4.90;2.60;;;;;;;;;;7742797;23;20027;-54
2022/07/13 06:36:32;;;;;;;4.72;2.70;;;;;;;;;;7740102;23;20036;-51
2022/07/13 06:39:34;;;;;;;5.43;3.15;;;;;;;;;;7739173;23;20301;-56
2022/07/13 06:42:34;;;;;;;5.57;2.42;;;;;;;;;;7742225;23;20111;-49
2022/07/13 06:45:35;;;;;;;5.30;2.83;;;;;;;;;;7748517;23;20015;-48
2022/07/13 06:48:36;;;;;;;4.90;2.50;;;;;;;;;;7740109;23;20054;-53
2022/07/13 06:51:36;;;;;;;7.60;2.45;;;;;;;;;;7741912;23;20478;-51
2022/07/13 06:54:37;;;;;;;6.95;2.60;;;;;;;;;;7739284;23;20245;-52
2022/07/13 06:57:38;;;;;;;6.23;2.67;;;;;;;;;;7741275;23;20091;-52
2022/07/13 07:00:39;;;;;;;6.47;2.93;;;;;;;;;;7738213;23;20020;-58
2022/07/13 07:03:39;;;;;;;5.63;2.90;;;;;;;;;;7740785;23;20026;-53
2022/07/13 07:06:40;;;;;;;5.25;2.40;;;;;;;;;;7739211;23;20765;-51
2022/07/13 07:09:40;;;;;;;6.22;2.88;;;;;;;;;;7739743;23;20507;-51
2022/07/13 07:12:41;;;;;;;4.93;2.47;;;;;;;;;;7740090;23;20336;-56
2022/07/13 07:15:41;;;;;;;5.95;2.72;;;;;;;;;;7741004;23;20506;-51
2022/07/13 07:18:42;;;;;;;4.65;2.67;;;;;;;;;;7742252;23;20692;-50
2022/07/13 07:21:42;;;;;;;7.30;2.60;;;;;;;;;;7741575;23;20020;-51
2022/07/13 07:24:43;;;;;;;4.10;2.40;;;;;;;;;;7741034;23;20020;-56
2022/07/13 07:27:44;;;;;;;5.70;2.57;;;;;;;;;;7715008;23;20050;-50
2022/07/13 07:30:44;;;;;;;5.90;2.97;;;;;;;;;;7742160;23;20016;-55
2022/07/13 07:33:45;;;;;;;4.10;2.20;;;;;;;;;;7740473;23;20378;-54
2022/07/13 07:36:45;;;;;;;6.27;2.40;;;;;;;;;;7741946;23;20503;-48
2022/07/13 07:39:46;;;;;;;4.70;2.23;;;;;;;;;;7741407;23;20103;-48
2022/07/13 07:42:47;;;;;;;6.10;2.35;;;;;;;;;;7742181;23;20126;-49
2022/07/13 07:45:48;;;;;;;4.33;2.37;;;;;;;;;;7741849;23;20016;-50
2022/07/13 07:48:49;;;;;;;4.60;2.30;;;;;;;;;;7741394;23;20016;-55
2022/07/13 07:51:49;;;;;;;6.80;2.80;;;;;;;;;;7743341;23;20543;-54
2022/07/13 07:54:50;;;;;;;9.27;3.53;;;;;;;;;;7737558;23;20042;-53
2022/07/13 07:57:51;;;;;;;4.93;2.57;;;;;;;;;;7754806;23;20016;-50
2022/07/13 08:00:51;;;;;;;5.13;2.43;;;;;;;;;;7714402;23;20078;-55
2022/07/13 08:03:52;;;;;;;5.00;2.00;;;;;;;;;;7747875;23;20281;-56
2022/07/13 08:06:52;;;;;;;6.77;2.70;;;;;;;;;;7738949;23;20046;-52
2022/07/13 08:09:53;;;;;;;6.30;2.60;;;;;;;;;;7742639;23;20466;-53
2022/07/13 08:12:55;;;;;;;3.80;2.10;;;;;;;;;;7742931;23;20107;-52
2022/07/13 08:15:56;;;;;;;7.50;2.80;;;;;;;;;;7744620;23;20507;-52
2022/07/13 08:18:57;;;;;;;4.38;2.20;;;;;;;;;;7743178;23;20424;-53
2022/07/13 08:21:57;;;;;;;4.80;2.20;;;;;;;;;;7743663;23;20024;-53
2022/07/13 08:24:58;;;;;;;4.40;2.10;;;;;;;;;;7741995;23;20514;-49
2022/07/13 08:27:59;;;;;;;4.47;2.20;;;;;;;;;;7743131;23;20028;-56
2022/07/13 08:30:59;;;;;;;6.20;2.27;;;;;;;;;;7744356;23;20016;-52
2022/07/13 08:40:43;;;;;;;3.00;1.80;;;;;;;;;;7740121;23;20031;-48
2022/07/13 08:43:44;;;;;;;4.68;2.17;;;;;;;;;;7715896;23;20093;-51
2022/07/13 08:46:45;;;;;;;4.40;1.90;;;;;;;;;;7741338;23;20344;-52
2022/07/13 08:49:47;;;;;;;4.50;1.90;;;;;;;;;;7741767;23;20103;-51
2022/07/13 08:52:48;;;;;;;4.47;1.90;;;;;;;;;;7741579;23;20024;-51
2022/07/13 08:55:50;;;;;;;3.35;1.60;;;;;;;;;;7740524;23;20047;-48
2022/07/13 08:58:52;;;;;;;5.30;1.80;;;;;;;;;;7740348;23;20023;-55
2022/07/13 09:01:54;;;;;;;3.63;1.48;;;;;;;;;;7741425;23;20043;-52
2022/07/13 09:04:55;;;;;;;3.08;1.90;;;;;;;;;;7742013;23;20448;-52
2022/07/13 09:08:05;;;;;;;4.60;1.90;;;;;;;;;;7743434;23;20024;-48
2022/07/13 09:11:06;;;;;;;2.80;1.60;;;;;;;;;;7740968;23;20909;-50
2022/07/13 09:14:06;;;;;;;5.60;1.77;;;;;;;;;;7743720;23;20024;-51
2022/07/13 09:17:07;;;;;;;3.87;1.60;;;;;;;;;;7742473;23;20024;-57
2022/07/13 09:20:10;;;;;;;3.97;1.70;;;;;;;;;;7743452;23;20020;-52
2022/07/13 09:23:11;;;;;;;3.75;1.50;;;;;;;;;;7743281;23;20023;-48
2022/07/13 09:26:11;;;;;;;5.23;1.70;;;;;;;;;;7744656;23;20020;-53
2022/07/13 09:29:13;;;;;;;2.93;1.60;;;;;;;;;;7746164;23;20118;-56
2022/07/13 09:32:14;;;;;;;4.80;1.50;;;;;;;;;;7745697;23;20043;-52
2022/07/13 09:35:15;;;;;;;3.10;1.60;;;;;;;;;;7744026;23;20127;-55
2022/07/13 09:38:38;;;;;;;4.70;1.40;;;;;;;;;;7744718;23;20829;-50
2022/07/13 09:41:42;;;;;;;4.90;1.63;;;;;;;;;;7742782;23;20024;-50
2022/07/13 09:48:13;;;;;;;3.10;1.97;;;;;;;;;;7742739;23;20043;-59
2022/07/13 09:51:14;;;;;;;3.40;1.80;;;;;;;;;;7743160;23;20452;-57
2022/07/13 09:54:15;;;;;;;4.70;1.87;;;;;;;;;;7742547;23;20020;-54
2022/07/13 09:57:19;;;;;;;8.95;1.98;;;;;;;;;;7742210;23;20055;-54
2022/07/13 10:00:20;;;;;;;4.70;2.00;;;;;;;;;;7740613;23;20405;-50
2022/07/13 10:03:22;;;;;;;5.30;2.30;;;;;;;;;;7739569;23;20046;-53
2022/07/13 10:06:22;;;;;;;7.70;2.20;;;;;;;;;;7732865;23;20020;-51
2022/07/13 10:09:32;;;;;;;5.07;2.20;;;;;;;;;;7741384;23;20016;-55
2022/07/13 10:12:36;;;;;;;4.38;2.00;;;;;;;;;;7742300;23;20024;-52
2022/07/13 10:15:37;;;;;;;4.85;2.00;;;;;;;;;;7741200;23;20043;-51
2022/07/13 10:18:41;;;;;;;5.75;2.00;;;;;;;;;;7740216;23;20012;-54
2022/07/13 10:22:01;;;;;;;4.95;1.85;;;;;;;;;;7740224;23;20032;-55
2022/07/13 10:25:02;;;;;;;7.68;2.38;;;;;;;;;;7742171;23;20026;-52
2022/07/13 10:28:04;;;;;;;5.43;2.20;;;;;;;;;;7741676;23;20044;-50
2022/07/13 10:31:27;;;;;;;4.43;2.00;;;;;;;;;;7741039;23;20332;-48
2022/07/13 10:34:58;;;;;;;3.72;2.03;;;;;;;;;;7741338;23;20095;-54
2022/07/13 10:38:01;;;;;;;4.00;2.20;;;;;;;;;;7741773;23;20016;-48
2022/07/13 10:41:21;;;;;;;4.93;2.20;;;;;;;;;;7742571;23;20020;-53
2022/07/13 10:44:37;;;;;;;4.07;2.10;;;;;;;;;;7742055;23;20020;-49
2022/07/13 10:47:46;;;;;;;7.43;2.50;;;;;;;;;;7743663;23;20024;-53
2022/07/13 10:50:54;;;;;;;4.03;2.08;;;;;;;;;;7742656;23;20475;-47
2022/07/13 10:53:54;;;;;;;4.32;1.90;;;;;;;;;;7733636;23;20039;-52
2022/07/13 10:57:14;;;;;;;3.77;2.17;;;;;;;;;;7735258;23;20047;-49
2022/07/13 11:00:24;;;;;;;4.47;2.30;;;;;;;;;;7735047;23;20042;-55
2022/07/13 11:03:35;;;;;;;4.38;2.15;;;;;;;;;;7733112;23;20102;-47
2022/07/13 11:06:36;;;;;;;4.95;1.95;;;;;;;;;;7739160;23;20019;-47
2022/07/13 11:09:39;;;;;;;3.38;1.90;;;;;;;;;;7734530;23;20020;-52
2022/07/13 11:13:10;;;;;;;4.03;1.90;;;;;;;;;;7735531;23;20104;-49
2022/07/13 11:16:12;;;;;;;3.63;1.60;;;;;;;;;;7740523;23;20047;-56
2022/07/13 11:19:14;;;;;;;3.65;1.73;;;;;;;;;;7731744;23;20066;-47
2022/07/13 11:22:16;;;;;;;5.88;2.15;;;;;;;;;;7731182;23;20382;-51
2022/07/13 11:25:50;;;;;;;4.40;2.15;;;;;;;;;;7727196;23;20020;-54
2022/07/13 11:28:59;;;;;;;5.53;1.98;;;;;;;;;;7728712;23;20024;-57
2022/07/13 11:32:02;;;;;;;4.60;1.90;;;;;;;;;;7734818;23;20031;-57
2022/07/13 11:35:03;;;;;;;4.03;1.98;;;;;;;;;;7733126;23;20459;-53
2022/07/13 11:38:05;;;;;;;3.75;1.58;;;;;;;;;;7734896;23;20106;-49
2022/07/13 11:41:06;;;;;;;3.80;1.50;;;;;;;;;;7735711;23;20109;-58
2022/07/13 11:44:10;;;;;;;3.97;1.50;;;;;;;;;;7731143;23;20024;-47
2022/07/13 11:47:11;;;;;;;3.45;1.50;;;;;;;;;;7732374;23;20066;-51
2022/07/13 11:50:12;;;;;;;2.70;1.37;;;;;;;;;;7730747;23;20460;-53
2022/07/13 11:53:21;;;;;;;2.72;1.27;;;;;;;;;;7729384;23;20391;-48
2022/07/13 11:56:22;;;;;;;4.07;1.35;;;;;;;;;;7730771;23;20329;-51
2022/07/13 11:59:39;;;;;;;5.50;1.30;;;;;;;;;;7727823;23;20024;-57
2022/07/13 12:02:40;;;;;;;2.72;1.33;;;;;;;;;;7730088;23;20119;-55
2022/07/13 12:05:44;;;;;;;3.70;1.33;;;;;;;;;;7727457;23;20032;-53
2022/07/13 12:08:46;;;;;;;2.60;1.35;;;;;;;;;;7730093;23;20598;-55
2022/07/13 12:11:46;;;;;;;3.42;1.20;;;;;;;;;;7733292;23;20020;-55
2022/07/13 12:14:48;;;;;;;3.03;1.20;;;;;;;;;;7726117;23;20131;-55
2022/07/13 12:17:49;;;;;;;2.67;1.05;;;;;;;;;;7728024;23;20270;-53
2022/07/13 12:20:50;;;;;;;2.00;1.20;;;;;;;;;;7731709;23;20032;-55
2022/07/13 12:23:51;;;;;;;3.07;1.20;;;;;;;;;;7731839;23;20299;-55
2022/07/13 12:26:53;;;;;;;2.83;1.40;;;;;;;;;;7729506;23;20055;-54
2022/07/13 12:30:06;;;;;;;2.95;1.30;;;;;;;;;;7727939;23;20488;-56
2022/07/13 12:33:11;;;;;;;3.47;1.50;;;;;;;;;;7727191;23;20100;-47
2022/07/13 12:36:13;;;;;;;2.42;1.30;;;;;;;;;;7730251;23;20027;-55
2022/07/13 12:39:14;;;;;;;2.83;1.40;;;;;;;;;;7726800;23;20098;-49
2022/07/13 12:42:14;;;;;;;2.60;1.07;;;;;;;;;;7729655;23;20020;-48
2022/07/13 12:45:16;;;;;;;2.80;1.30;;;;;;;;;;7727913;23;20078;-57
2022/07/13 12:48:22;;;;;;;4.28;1.42;;;;;;;;;;7734958;23;20032;-52
2022/07/13 12:51:23;;;;;;;4.85;1.52;;;;;;;;;;7735173;23;20146;-52
2022/07/13 12:54:42;;;;;;;3.00;1.60;;;;;;;;;;7733110;23;20466;-58
2022/07/13 12:57:46;;;;;;;4.22;1.55;;;;;;;;;;7733971;23;20130;-51
2022/07/13 13:00:47;;;;;;;2.97;1.50;;;;;;;;;;7735114;23;20024;-49
2022/07/13 13:03:47;;;;;;;4.43;1.80;;;;;;;;;;7740608;23;20028;-54
2022/07/13 13:06:48;;;;;;;3.73;1.80;;;;;;;;;;7728734;23;20020;-58
2022/07/13 13:09:48;;;;;;;3.07;1.50;;;;;;;;;;7730340;23;20676;-58
2022/07/13 13:12:49;;;;;;;2.77;1.50;;;;;;;;;;7730727;23;20370;-52
2022/07/13 13:15:49;;;;;;;3.23;1.50;;;;;;;;;;7731666;23;20030;-58
2022/07/13 13:18:50;;;;;;;4.17;1.77;;;;;;;;;;7732439;23;20440;-49
2022/07/13 13:21:51;;;;;;;3.17;1.40;;;;;;;;;;7729663;23;20024;-55
2022/07/13 13:24:52;;;;;;;4.47;1.67;;;;;;;;;;7729711;23;20016;-58
2022/07/13 13:27:53;;;;;;;6.28;1.80;;;;;;;;;;7733373;23;20107;-55
2022/07/13 13:30:53;;;;;;;4.57;1.57;;;;;;;;;;7732475;23;20038;-47
2022/07/13 13:33:54;;;;;;;2.53;1.40;;;;;;;;;;7730071;23;20435;-54
2022/07/13 13:36:54;;;;;;;3.57;1.30;;;;;;;;;;7730931;23;20047;-53
2022/07/13 13:39:55;;;;;;;2.80;1.60;;;;;;;;;;7730948;23;20020;-51
2022/07/13 13:42:55;;;;;;;3.03;1.70;;;;;;;;;;7729350;23;20020;-54
2022/07/13 13:45:56;;;;;;;2.90;1.53;;;;;;;;;;7735877;23;20797;-54
2022/07/13 13:48:57;;;;;;;2.70;1.50;;;;;;;;;;7731919;23;20318;-52
2022/07/13 13:51:57;;;;;;;3.20;1.53;;;;;;;;;;7729557;23;20039;-48
2022/07/13 13:54:58;;;;;;;2.80;1.57;;;;;;;;;;7727816;23;20022;-51
2022/07/13 13:57:59;;;;;;;3.92;1.63;;;;;;;;;;7731959;23;20023;-56
2022/07/13 14:00:59;;;;;;;6.83;1.70;;;;;;;;;;7736959;23;20024;-51
2022/07/13 14:04:00;;;;;;;5.05;2.50;;;;;;;;;;7728058;23;20087;-53
2022/07/13 14:07:03;;;;;;;4.00;1.50;;;;;;;;;;7733000;23;20077;-52
2022/07/13 14:10:05;;;;;;;4.20;1.70;;;;;;;;;;7734452;23;20027;-51
2022/07/13 14:13:06;;;;;;;;;;;;;;;;;;7732196;23;20047;-52
2022/07/13 14:16:07;;;;;;;2.77;1.63;;;;;;;;;;7734481;23;19926;-50
2022/07/13 14:19:09;;;;;;;2.92;1.50;;;;;;;;;;7735457;23;20031;-57
2022/07/13 14:22:09;;;;;;;;;;;;;;;;;;7731271;23;20012;-59
2022/07/13 14:25:10;;;;;;;3.10;1.50;;;;;;;;;;7727726;23;20357;-54
2022/07/13 14:28:10;;;;;;;2.77;1.70;;;;;;;;;;7739898;23;20028;-59
2022/07/13 14:31:11;;;;;;;2.80;1.53;;;;;;;;;;7730897;23;20322;-57
2022/07/13 14:34:12;;;;;;;3.73;1.60;;;;;;;;;;7729633;23;20345;-51
2022/07/13 14:37:16;;;;;;;2.72;1.58;;;;;;;;;;7729608;23;20086;-56
2022/07/13 14:40:17;;;;;;;5.53;1.75;;;;;;;;;;7729323;23;20016;-55
2022/07/13 14:43:18;;;;;;;2.77;1.40;;;;;;;;;;7727852;23;20059;-57
2022/07/13 14:46:22;;;;;;;3.33;1.42;;;;;;;;;;7727630;23;20095;-57
2022/07/13 14:49:23;;;;;;;4.65;1.60;;;;;;;;;;7728023;23;20151;-59
2022/07/13 14:52:24;;;;;;;;;;;;;;;;;;7734462;23;20715;-59
2022/07/13 14:55:25;;;;;;;3.17;1.40;;;;;;;;;;7732764;23;19926;-55
2022/07/13 14:58:25;;;;;;;2.90;1.60;;;;;;;;;;7735965;23;20024;-59
2022/07/13 15:01:26;;;;;;;7.40;1.50;;;;;;;;;;7735928;23;20100;-55
2022/07/13 15:04:27;;;;;;;2.65;1.58;;;;;;;;;;7734536;23;20868;-54
2022/07/13 15:07:28;;;;;;;;;;;;;;;;;;7735585;23;20490;-59
2022/07/13 15:10:29;;;;;;;4.03;1.40;;;;;;;;;;7735973;23;19920;-55
2022/07/13 15:13:29;;;;;;;3.20;1.80;;;;;;;;;;7733826;23;21179;-52
2022/07/13 15:16:30;;;;;;;4.80;1.40;;;;;;;;;;7733410;23;20020;-57
2022/07/13 15:19:30;;;;;;;5.50;1.60;;;;;;;;;;7733712;23;20268;-57
2022/07/13 15:22:31;;;;;;;2.90;1.60;;;;;;;;;;7735189;23;20024;-58
2022/07/13 15:25:32;;;;;;;4.73;1.40;;;;;;;;;;7733173;23;20352;-59
2022/07/13 15:28:32;;;;;;;3.78;1.60;;;;;;;;;;7735936;23;20040;-52
2022/07/13 15:31:33;;;;;;;3.30;1.60;;;;;;;;;;7732607;23;20016;-54
2022/07/13 15:34:34;;;;;;;3.70;1.60;;;;;;;;;;7734177;23;20023;-56
2022/07/13 15:37:34;;;;;;;4.47;1.87;;;;;;;;;;7733751;23;20059;-49
2022/07/13 15:43:57;;;;;;;3.38;1.48;;;;;;;;;;7734356;23;20324;-51
2022/07/13 15:46:57;;;;;;;5.28;1.85;;;;;;;;;;7736202;23;20059;-49
2022/07/13 15:49:58;;;;;;;5.50;1.60;;;;;;;;;;7735832;23;20024;-53
2022/07/13 15:52:59;;;;;;;5.33;1.57;;;;;;;;;;7734488;23;20688;-52
2022/07/13 15:55:59;;;;;;;5.33;1.60;;;;;;;;;;7736006;23;20252;-51
2022/07/13 15:59:00;;;;;;;4.05;1.70;;;;;;;;;;7735490;23;20131;-48
2022/07/13 16:02:01;;;;;;;3.55;1.40;;;;;;;;;;7742378;23;20020;-52
2022/07/13 16:05:01;;;;;;;2.63;1.45;;;;;;;;;;7745231;23;20099;-52
2022/07/13 16:08:02;;;;;;;4.43;1.60;;;;;;;;;;7743275;23;20334;-55
2022/07/13 16:11:03;;;;;;;3.65;1.70;;;;;;;;;;7744933;23;20427;-64
2022/07/13 16:14:05;;;;;;;5.60;1.70;;;;;;;;;;7744382;23;20087;-53
2022/07/13 16:17:06;;;;;;;2.53;1.50;;;;;;;;;;7744314;23;20095;-49
2022/07/13 16:20:07;;;;;;;4.10;1.60;;;;;;;;;;7743994;23;20351;-49
2022/07/13 16:23:08;;;;;;;2.97;1.60;;;;;;;;;;7744395;23;20099;-50
2022/07/13 16:26:09;;;;;;;5.13;1.70;;;;;;;;;;7743326;23;20517;-52
2022/07/13 16:29:09;;;;;;;3.55;1.60;;;;;;;;;;7743513;23;20039;-49
2022/07/13 16:32:10;;;;;;;6.70;1.53;;;;;;;;;;7745643;23;20055;-50
2022/07/13 16:35:10;;;;;;;3.55;1.65;;;;;;;;;;7744120;23;20042;-56
2022/07/13 16:38:11;;;;;;;3.00;1.60;;;;;;;;;;7727977;23;20460;-55
2022/07/13 16:41:12;;;;;;;4.00;1.53;;;;;;;;;;7737451;23;20028;-56
2022/07/13 16:44:12;;;;;;;4.20;1.70;;;;;;;;;;7736725;23;20238;-50
2022/07/13 16:47:13;;;;;;;4.63;1.50;;;;;;;;;;7728352;23;20463;-50
2022/07/13 16:50:13;;;;;;;3.30;1.50;;;;;;;;;;7736786;23;20525;-52
2022/07/13 16:53:14;;;;;;;3.55;1.30;;;;;;;;;;7735576;23;20024;-51
2022/07/13 16:56:15;;;;;;;5.27;1.50;;;;;;;;;;7732609;23;20563;-54
2022/07/13 16:59:16;;;;;;;2.70;1.50;;;;;;;;;;7737383;23;20020;-53
2022/07/13 17:02:16;;;;;;;3.78;1.45;;;;;;;;;;7738450;23;20024;-55
2022/07/13 17:05:17;;;;;;;4.63;1.60;;;;;;;;;;7746727;23;20111;-57
2022/07/13 17:08:18;;;;;;;4.72;1.60;;;;;;;;;;7734800;23;20085;-50
2022/07/13 17:11:20;;;;;;;3.25;1.50;;;;;;;;;;7737417;23;20016;-59
2022/07/13 17:14:21;;;;;;;2.75;1.58;;;;;;;;;;7711468;23;20166;-50
2022/07/13 17:17:21;;;;;;;4.03;2.00;;;;;;;;;;7734670;23;20020;-56
2022/07/13 17:20:22;;;;;;;3.37;1.90;;;;;;;;;;7737624;23;20265;-49
2022/07/13 17:23:23;;;;;;;4.70;1.70;;;;;;;;;;7737619;23;20242;-49
2022/07/13 17:26:24;;;;;;;4.23;1.83;;;;;;;;;;7735426;23;20111;-53
2022/07/13 17:29:25;;;;;;;4.82;1.60;;;;;;;;;;7737756;23;20012;-55
2022/07/13 17:32:25;;;;;;;4.93;1.73;;;;;;;;;;7737749;23;20352;-49
2022/07/13 17:35:26;;;;;;;3.13;1.73;;;;;;;;;;7737907;23;20391;-48
2022/07/13 17:38:26;;;;;;;3.33;1.60;;;;;;;;;;7735342;23;20016;-50
2022/07/13 17:41:27;;;;;;;3.50;1.50;;;;;;;;;;7737075;23;20019;-48
2022/07/13 17:44:28;;;;;;;4.03;1.57;;;;;;;;;;7737925;23;20487;-49
2022/07/13 17:47:28;;;;;;;3.15;1.30;;;;;;;;;;7735166;23;20420;-49
2022/07/13 17:50:29;;;;;;;4.53;1.50;;;;;;;;;;7719027;23;20042;-54
2022/07/13 17:53:30;;;;;;;5.15;1.63;;;;;;;;;;7737698;23;20800;-49
2022/07/13 17:56:30;;;;;;;3.47;1.52;;;;;;;;;;7734775;23;20016;-49
2022/07/13 17:59:31;;;;;;;2.50;1.33;;;;;;;;;;7737294;23;20020;-50
2022/07/13 18:02:31;;;;;;;3.70;1.50;;;;;;;;;;7737092;23;21104;-55
2022/07/13 18:05:32;;;;;;;3.37;1.80;;;;;;;;;;7736862;23;20050;-48
2022/07/13 18:08:33;;;;;;;3.07;1.57;;;;;;;;;;7735572;23;20260;-49
2022/07/13 18:11:34;;;;;;;5.70;1.77;;;;;;;;;;7736831;23;20036;-50
2022/07/13 18:14:34;;;;;;;2.73;1.53;;;;;;;;;;7735173;23;20238;-50
2022/07/13 18:17:36;;;;;;;6.55;1.80;;;;;;;;;;7731603;23;20031;-50
2022/07/13 18:20:36;;;;;;;2.92;1.42;;;;;;;;;;7732991;23;20023;-56
2022/07/13 18:23:50;;;;;;;4.00;1.60;;;;;;;;;;7736584;23;20026;-48
2022/07/13 18:26:51;;;;;;;4.70;1.80;;;;;;;;;;7733823;23;20027;-49